Time;durP1;ratioP1;P1;durP2;ratioP2;P2;SDS_P1;SDS_P2;PMS_P1;PMS_P2;Temp;Humidity;BMP_temperature;BMP_pressure;BME280_temperature;BME280_humidity;BME280_pressure;Samples;Min_cycle;Max_cycle;Signal;HPM_P1;HPM_P2
2020/12/31 00:01:26;;;;;;;19.92;9.90;;;;;;;10.78;74.33;100240.09;1712291;83;21123;-68
2020/12/31 00:03:54;;;;;;;26.07;10.03;;;;;;;10.81;74.34;100237.42;1712293;84;21167;-68
2020/12/31 00:06:22;;;;;;;17.62;9.68;;;;;;;10.84;74.23;100243.49;1702063;83;21184;-68
2020/12/31 00:08:50;;;;;;;19.75;9.68;;;;;;;10.86;74.20;100246.09;1704195;84;21156;-69
2020/12/31 00:11:17;;;;;;;21.95;9.53;;;;;;;10.86;74.09;100239.08;1719609;83;21183;-68
2020/12/31 00:13:45;;;;;;;18.35;8.68;;;;;;;10.85;73.96;100244.34;1717502;83;21511;-69
2020/12/31 00:16:13;;;;;;;23.90;10.10;;;;;;;10.81;73.89;100242.69;1689674;83;21198;-69
2020/12/31 00:18:40;;;;;;;18.17;9.15;;;;;;;10.82;73.81;100251.86;1674694;85;21588;-70
2020/12/31 00:21:08;;;;;;;18.02;8.95;;;;;;;10.84;73.69;100253.14;1688930;84;21152;-68
2020/12/31 00:23:35;;;;;;;19.50;9.75;;;;;;;10.73;74.03;100255.09;1677723;84;21527;-68
2020/12/31 00:26:03;;;;;;;24.02;9.53;;;;;;;10.75;74.03;100254.16;1671581;85;21655;-69
2020/12/31 00:28:31;;;;;;;20.27;9.23;;;;;;;10.76;73.84;100249.31;1648325;87;21334;-68
2020/12/31 00:30:58;;;;;;;17.87;9.08;;;;;;;10.73;73.95;100254.63;1712409;84;21663;-68
2020/12/31 00:33:26;;;;;;;18.37;9.15;;;;;;;10.68;74.09;100251.19;1702881;83;21630;-67
2020/12/31 00:35:55;;;;;;;22.00;9.78;;;;;;;10.68;74.03;100249.88;1704409;84;21664;-70
2020/12/31 00:38:23;;;;;;;21.85;10.08;;;;;;;10.67;73.82;100250.34;1706078;83;21191;-68
2020/12/31 00:40:52;;;;;;;15.60;9.10;;;;;;;10.64;73.71;100253.44;1690643;85;21629;-67
2020/12/31 00:43:20;;;;;;;27.67;10.70;;;;;;;10.56;73.74;100254.45;1659505;85;21721;-69
2020/12/31 00:45:48;;;;;;;37.35;12.55;;;;;;;10.56;73.43;100251.81;1712166;83;21589;-70
2020/12/31 00:48:15;;;;;;;31.05;12.15;;;;;;;10.48;73.27;100247.53;1682020;84;21187;-69
2020/12/31 00:50:44;;;;;;;33.80;10.00;;;;;;;10.36;73.21;100244.16;1690385;85;21208;-68
2020/12/31 00:53:12;;;;;;;44.13;11.78;;;;;;;10.26;73.38;100251.29;1675611;84;21148;-68
2020/12/31 00:55:40;;;;;;;36.95;10.60;;;;;;;10.23;73.63;100251.78;1690699;83;21180;-68
2020/12/31 00:58:09;;;;;;;25.68;9.75;;;;;;;10.20;73.90;100254.45;1720127;83;21203;-70
2020/12/31 01:00:36;;;;;;;26.15;10.13;;;;;;;10.19;74.08;100260.60;1708391;84;21128;-69
2020/12/31 01:03:06;;;;;;;26.60;9.60;;;;;;;10.19;74.25;100258.83;1721031;83;21135;-68
2020/12/31 01:05:34;;;;;;;20.65;10.03;;;;;;;10.23;74.34;100258.36;1708285;84;21522;-68
2020/12/31 01:08:02;;;;;;;18.25;9.53;;;;;;;10.23;74.29;100259.22;1721422;83;21575;-68
2020/12/31 01:10:30;;;;;;;17.73;8.25;;;;;;;10.24;74.38;100250.44;1686664;85;21179;-68
2020/12/31 01:12:58;;;;;;;22.00;9.90;;;;;;;10.23;74.53;100247.84;1692664;83;21670;-68
2020/12/31 01:15:25;;;;;;;17.87;9.40;;;;;;;10.22;74.53;100246.95;1698574;84;21611;-68
2020/12/31 01:17:53;;;;;;;21.50;8.63;;;;;;;10.26;74.42;100250.44;1721197;83;21182;-68
2020/12/31 01:20:21;;;;;;;19.90;8.53;;;;;;;10.29;74.25;100245.13;1686750;84;21625;-68
2020/12/31 01:22:48;;;;;;;24.25;9.45;;;;;;;10.28;74.21;100242.08;1681376;85;21203;-70
2020/12/31 01:25:16;;;;;;;23.10;8.58;;;;;;;10.30;74.21;100238.09;1677578;85;21609;-69
2020/12/31 01:27:44;;;;;;;19.62;8.83;;;;;;;10.29;74.30;100237.24;1708647;83;21722;-68
2020/12/31 01:30:11;;;;;;;24.45;10.65;;;;;;;10.33;74.11;100236.31;1720881;83;21639;-69
2020/12/31 01:32:39;;;;;;;19.05;9.38;;;;;;;10.37;73.96;100237.13;1707932;84;21159;-70
2020/12/31 01:35:06;;;;;;;18.87;9.28;;;;;;;10.35;74.10;100238.91;1687035;85;21575;-69
2020/12/31 01:37:35;;;;;;;17.07;8.28;;;;;;;10.35;74.00;100238.91;1686989;85;21183;-69
2020/12/31 01:40:03;;;;;;;22.02;9.43;;;;;;;10.41;73.88;100236.23;1686638;85;21649;-70
2020/12/31 01:42:31;;;;;;;19.80;10.53;;;;;;;10.40;74.02;100232.71;1694213;83;21163;-70
2020/12/31 01:44:58;;;;;;;22.65;10.85;;;;;;;10.42;74.14;100231.39;1680010;85;21143;-69
2020/12/31 01:47:26;;;;;;;26.37;9.93;;;;;;;10.46;74.24;100233.52;1692375;85;21194;-69
2020/12/31 01:49:53;;;;;;;18.52;9.88;;;;;;;10.52;74.29;100224.23;1679910;84;21592;-70
2020/12/31 01:52:21;;;;;;;20.92;9.98;;;;;;;10.53;74.28;100226.86;1716906;83;21582;-69
2020/12/31 01:54:49;;;;;;;21.07;9.55;;;;;;;10.56;74.17;100221.55;1686617;85;21313;-69
2020/12/31 01:57:17;;;;;;;22.75;10.10;;;;;;;10.62;74.14;100216.63;1644706;85;21151;-69
2020/12/31 01:59:45;;;;;;;20.75;9.10;;;;;;;10.67;73.95;100215.23;1713644;83;21301;-69
2020/12/31 02:02:14;;;;;;;17.00;8.65;;;;;;;10.66;74.00;100202.96;1664761;85;21289;-68
2020/12/31 02:04:41;;;;;;;21.30;9.10;;;;;;;10.64;74.08;100204.75;1692506;83;21154;-70
2020/12/31 02:07:09;;;;;;;17.45;9.58;;;;;;;10.61;74.18;100204.79;1659389;86;21601;-68
2020/12/31 02:09:37;;;;;;;19.55;8.98;;;;;;;10.56;74.30;100200.92;1668013;85;21175;-69
2020/12/31 02:12:05;;;;;;;19.98;9.00;;;;;;;10.58;74.28;100196.97;1659425;86;21318;-70
2020/12/31 02:14:32;;;;;;;19.12;9.83;;;;;;;10.52;74.40;100197.48;1659124;86;21200;-68
2020/12/31 02:17:00;;;;;;;16.20;9.23;;;;;;;10.48;74.58;100185.27;1721585;83;21542;-68
2020/12/31 02:19:28;;;;;;;17.67;9.70;;;;;;;10.45;74.97;100189.25;1704198;84;21350;-69
2020/12/31 02:21:55;;;;;;;23.42;9.33;;;;;;;10.52;74.96;100191.33;1721301;83;21635;-70
2020/12/31 02:24:23;;;;;;;17.85;9.10;;;;;;;10.54;75.04;100193.07;1686746;85;21313;-69
2020/12/31 02:26:50;;;;;;;21.75;8.03;;;;;;;10.61;74.90;100189.00;1681491;85;21623;-69
2020/12/31 02:29:18;;;;;;;20.97;8.05;;;;;;;10.61;74.97;100184.62;1692442;85;21597;-69
2020/12/31 02:31:47;;;;;;;17.70;9.00;;;;;;;10.64;75.00;100195.53;1680129;85;21162;-69
2020/12/31 02:34:15;;;;;;;16.15;7.60;;;;;;;10.67;74.87;100188.91;1699157;83;21210;-69
2020/12/31 02:36:42;;;;;;;17.87;7.80;;;;;;;10.66;74.92;100188.48;1689136;84;21563;-68
2020/12/31 02:39:12;;;;;;;20.12;8.00;;;;;;;10.70;74.74;100192.38;1691132;85;21199;-68
2020/12/31 02:41:40;;;;;;;20.43;8.05;;;;;;;10.70;74.57;100191.06;1678925;85;21613;-69
2020/12/31 02:44:08;;;;;;;19.55;8.08;;;;;;;10.67;74.56;100191.11;1690967;85;21192;-69
2020/12/31 02:46:36;;;;;;;24.98;9.05;;;;;;;10.64;74.52;100193.79;1697662;84;21552;-68
2020/12/31 02:49:05;;;;;;;22.35;8.55;;;;;;;10.59;74.56;100190.35;1721247;83;21215;-69
2020/12/31 02:51:32;;;;;;;21.40;8.75;;;;;;;10.56;74.51;100188.66;1708542;84;21169;-69
2020/12/31 02:54:00;;;;;;;18.48;8.35;;;;;;;10.52;74.53;100187.39;1721528;83;21656;-69
2020/12/31 02:56:27;;;;;;;24.72;8.40;;;;;;;10.46;74.70;100183.53;1698302;83;21152;-69
2020/12/31 02:58:55;;;;;;;17.50;8.63;;;;;;;10.46;74.64;100183.09;1703948;84;21171;-68
2020/12/31 03:01:23;;;;;;;17.17;6.92;;;;;;;10.46;74.57;100181.78;1715916;84;21626;-69
2020/12/31 03:03:50;;;;;;;19.48;7.37;;;;;;;10.43;74.56;100184.89;1717621;83;21157;-68
2020/12/31 03:06:19;;;;;;;20.92;8.25;;;;;;;10.37;74.67;100185.83;1668247;84;21173;-68
2020/12/31 03:08:47;;;;;;;15.63;8.05;;;;;;;10.34;74.78;100192.02;1665357;86;21651;-69
2020/12/31 03:11:22;;;;;;;16.85;8.18;;;;;;;10.33;74.75;100185.02;1671408;85;21667;-69
2020/12/31 03:13:50;;;;;;;21.95;8.95;;;;;;;10.29;75.01;100188.58;1665991;86;21203;-68
2020/12/31 03:16:19;;;;;;;19.82;9.83;;;;;;;10.29;75.03;100185.95;1685431;85;21301;-68
2020/12/31 03:18:47;;;;;;;18.77;8.40;;;;;;;10.29;74.94;100183.75;1665974;86;21215;-68
2020/12/31 03:21:15;;;;;;;19.92;8.18;;;;;;;10.30;74.81;100182.86;1693223;85;21702;-68
2020/12/31 03:23:42;;;;;;;18.32;9.08;;;;;;;10.26;74.90;100183.36;1665987;85;21174;-68
2020/12/31 03:26:10;;;;;;;20.85;8.58;;;;;;;10.24;74.83;100190.40;1693442;85;21575;-69
2020/12/31 03:28:38;;;;;;;16.87;8.03;;;;;;;10.19;74.92;100181.70;1666057;86;21211;-69
2020/12/31 03:31:06;;;;;;;21.42;8.43;;;;;;;10.21;74.75;100182.09;1687886;85;21158;-69
2020/12/31 03:33:33;;;;;;;21.48;9.38;;;;;;;10.20;74.78;100183.44;1690887;85;21634;-69
2020/12/31 03:36:01;;;;;;;17.75;8.50;;;;;;;10.17;75.00;100171.64;1666104;86;21188;-69
2020/12/31 03:38:29;;;;;;;17.73;9.10;;;;;;;10.16;75.10;100170.75;1666041;86;21211;-68
2020/12/31 03:40:57;;;;;;;24.72;8.83;;;;;;;10.23;74.87;100172.42;1653378;86;21170;-69
2020/12/31 03:43:24;;;;;;;21.97;9.23;;;;;;;10.16;75.02;100169.44;1685214;84;21603;-69
2020/12/31 03:45:52;;;;;;;17.90;8.03;;;;;;;10.16;75.21;100169.44;1693747;85;22209;-69
2020/12/31 03:48:20;;;;;;;17.25;8.35;;;;;;;10.15;75.36;100170.36;1660425;85;21163;-69
2020/12/31 03:50:47;;;;;;;20.32;8.20;;;;;;;10.18;75.21;100158.45;1687627;85;21594;-68
2020/12/31 03:53:15;;;;;;;19.15;8.43;;;;;;;10.19;75.32;100165.45;1662959;86;21605;-69
2020/12/31 03:55:42;;;;;;;19.12;9.23;;;;;;;10.20;75.39;100161.94;1678560;85;21164;-69
2020/12/31 03:58:10;;;;;;;22.27;10.20;;;;;;;10.18;75.79;100168.12;1659108;85;21563;-69
2020/12/31 04:00:37;;;;;;;21.42;9.45;;;;;;;10.14;75.93;100164.68;1688911;85;21167;-68
2020/12/31 04:03:05;;;;;;;20.15;8.53;;;;;;;10.18;75.89;100165.03;1713211;84;21610;-68
2020/12/31 04:05:32;;;;;;;23.02;8.50;;;;;;;10.18;75.97;100161.09;1713068;84;21220;-68
2020/12/31 04:08:00;;;;;;;14.78;7.90;;;;;;;10.15;76.28;100161.16;1707843;83;21167;-69
2020/12/31 04:10:27;;;;;;;18.20;8.25;;;;;;;10.24;75.97;100158.84;1661200;86;21656;-69
2020/12/31 04:12:55;;;;;;;18.05;8.43;;;;;;;10.31;75.66;100168.81;1682528;85;21156;-69
2020/12/31 04:15:23;;;;;;;20.70;9.18;;;;;;;10.27;75.62;100162.28;1661244;85;21159;-68
2020/12/31 04:17:50;;;;;;;22.60;8.33;;;;;;;10.27;75.69;100173.26;1723005;83;21618;-68
2020/12/31 04:20:17;;;;;;;21.70;8.75;;;;;;;10.28;75.53;100173.69;1675847;85;21575;-68
2020/12/31 04:22:45;;;;;;;22.30;9.13;;;;;;;10.27;75.57;100176.74;1661127;86;21202;-69
2020/12/31 04:25:12;;;;;;;19.70;8.28;;;;;;;10.27;75.48;100178.06;1723924;83;21209;-69
2020/12/31 04:27:40;;;;;;;24.60;8.98;;;;;;;10.26;75.56;100175.47;1723382;83;21554;-69
2020/12/31 04:30:08;;;;;;;25.37;9.58;;;;;;;10.25;75.57;100172.41;1688989;85;21855;-68
2020/12/31 04:32:35;;;;;;;21.65;9.33;;;;;;;10.34;75.20;100177.98;1644149;85;21661;-68
2020/12/31 04:35:04;;;;;;;19.15;7.92;;;;;;;10.32;75.28;100179.76;1692575;85;21151;-69
2020/12/31 04:37:31;;;;;;;18.00;8.25;;;;;;;10.31;75.17;100179.33;1688965;85;21643;-69
2020/12/31 04:39:59;;;;;;;16.57;8.85;;;;;;;10.28;75.16;100172.37;1650623;86;21183;-69
2020/12/31 04:42:36;;;;;;;20.77;9.83;;;;;;;10.25;75.29;100175.04;1708690;84;21588;-69
2020/12/31 04:45:04;;;;;;;18.90;8.70;;;;;;;10.33;74.83;100173.61;1716522;83;21179;-69
2020/12/31 04:47:45;;;;;;;18.75;8.73;;;;;;;10.23;75.02;100174.19;1689102;85;21187;-69
2020/12/31 04:50:13;;;;;;;19.12;8.53;;;;;;;10.20;75.14;100170.29;1703794;83;21618;-69
2020/12/31 04:52:41;;;;;;;17.15;7.90;;;;;;;10.20;75.06;100176.86;1724002;83;21132;-69
2020/12/31 04:55:08;;;;;;;17.85;7.90;;;;;;;10.20;75.14;100182.13;1723448;83;21657;-68
2020/12/31 04:57:36;;;;;;;21.17;8.75;;;;;;;10.20;75.03;100188.70;1684404;85;21622;-69
2020/12/31 05:00:04;;;;;;;22.25;9.30;;;;;;;10.18;74.99;100179.50;1672000;85;21190;-68
2020/12/31 05:02:32;;;;;;;23.70;9.95;;;;;;;10.18;74.91;100181.27;1709614;83;21542;-69
2020/12/31 05:05:00;;;;;;;23.00;10.13;;;;;;;10.14;74.99;100178.26;1732399;83;21551;-69
2020/12/31 05:07:29;;;;;;;21.57;11.43;;;;;;;10.12;74.88;100177.84;1701884;83;21179;-69
2020/12/31 05:10:12;;;;;;;30.23;16.12;;;;;;;10.09;75.02;100177.02;1732233;83;21135;-69
2020/12/31 05:12:39;;;;;;;33.48;14.78;;;;;;;10.09;74.97;100178.34;1731476;82;21580;-68
2020/12/31 05:15:07;;;;;;;33.83;14.90;;;;;;;10.10;75.00;100184.02;1732191;83;21135;-68
2020/12/31 05:17:35;;;;;;;33.58;17.20;;;;;;;10.09;75.05;100190.17;1729154;83;21162;-69
2020/12/31 05:20:15;;;;;;;36.98;17.45;;;;;;;10.09;75.12;100183.59;1732270;83;21580;-68
2020/12/31 05:22:42;;;;;;;32.20;16.55;;;;;;;10.09;75.17;100184.91;1706708;82;21182;-69
2020/12/31 05:25:10;;;;;;;34.13;16.62;;;;;;;10.09;75.14;100184.91;1703028;84;21304;-69
2020/12/31 05:27:37;;;;;;;32.78;15.43;;;;;;;10.10;75.19;100186.65;1722306;83;21138;-69
2020/12/31 05:30:09;;;;;;;38.08;17.87;;;;;;;10.02;75.45;100189.36;1714090;83;21566;-69
2020/12/31 05:32:39;;;;;;;37.83;18.85;;;;;;;10.00;75.44;100191.59;1703202;84;21187;-69
2020/12/31 05:35:11;;;;;;;41.67;18.30;;;;;;;9.99;75.55;100197.74;1709184;83;21115;-68
2020/12/31 05:37:39;;;;;;;35.13;19.02;;;;;;;10.00;75.52;100201.66;1714078;84;21323;-70
2020/12/31 05:40:10;;;;;;;28.85;14.80;;;;;;;9.99;75.65;100202.54;1713937;83;21174;-65
2020/12/31 05:42:40;;;;;;;26.85;12.80;;;;;;;10.03;75.56;100204.25;1703395;84;21569;-67
2020/12/31 05:45:15;;;;;;;29.82;11.93;;;;;;;10.03;75.62;100209.97;1705153;82;21222;-70
2020/12/31 05:47:50;;;;;;;27.30;11.50;;;;;;;10.08;75.63;100210.78;1724967;83;21119;-66
2020/12/31 05:50:31;;;;;;;23.40;9.65;;;;;;;10.15;75.58;100204.98;1732379;83;21158;-68
2020/12/31 05:52:58;;;;;;;28.77;10.85;;;;;;;10.16;75.46;100202.32;1732658;83;21130;-68
2020/12/31 05:55:26;;;;;;;18.60;8.03;;;;;;;10.16;75.44;100204.09;1730042;82;21627;-67
2020/12/31 05:57:56;;;;;;;28.52;10.48;;;;;;;10.15;75.59;100213.77;1706138;83;21158;-69
2020/12/31 06:00:27;;;;;;;25.32;10.35;;;;;;;10.25;75.37;100214.03;1695489;83;21192;-67
2020/12/31 06:02:59;;;;;;;;;;;;;;;10.26;75.38;100210.98;1725288;83;21161;-68
2020/12/31 06:05:28;;;;;;;23.27;9.98;;;;;;;10.30;75.31;100211.36;1709468;84;20129;-68
2020/12/31 06:07:58;;;;;;;16.85;9.33;;;;;;;10.34;75.20;100214.38;1701578;83;21131;-68
2020/12/31 06:10:32;;;;;;;26.87;9.88;;;;;;;10.42;74.99;100211.66;1708729;84;21213;-68
2020/12/31 06:13:01;;;;;;;22.70;9.13;;;;;;;10.36;75.07;100212.59;1686369;85;21112;-68
2020/12/31 06:15:39;;;;;;;20.65;9.38;;;;;;;10.39;75.11;100210.39;1715154;83;21626;-68
2020/12/31 06:18:07;;;;;;;14.95;8.43;;;;;;;10.43;75.06;100211.20;1659135;86;21187;-68
2020/12/31 06:20:39;;;;;;;23.30;8.70;;;;;;;10.44;74.98;100209.87;1692409;85;21175;-68
2020/12/31 06:23:11;;;;;;;23.55;8.65;;;;;;;10.41;75.17;100199.39;1660534;85;21314;-68
2020/12/31 06:25:44;;;;;;;17.95;8.50;;;;;;;10.42;75.41;100201.14;1666364;85;21208;-68
2020/12/31 06:28:18;;;;;;;21.45;9.10;;;;;;;10.45;75.43;100201.09;1695464;84;21143;-68
2020/12/31 06:30:52;;;;;;;19.32;8.25;;;;;;;10.47;75.46;100203.69;1687010;85;21620;-68
2020/12/31 06:33:40;;;;;;;23.77;9.53;;;;;;;10.50;75.43;100207.59;1688528;85;21167;-69
2020/12/31 06:36:08;;;;;;;20.90;8.95;;;;;;;10.52;75.36;100204.49;1687020;85;21606;-68
2020/12/31 06:38:40;;;;;;;22.30;8.53;;;;;;;10.54;75.33;100202.71;1686777;85;21179;-68
2020/12/31 06:41:47;;;;;;;25.95;9.33;;;;;;;10.55;75.42;100204.02;1687093;85;21151;-67
2020/12/31 06:44:16;;;;;;;22.65;8.05;;;;;;;10.57;75.49;100209.25;1740727;82;21155;-69
2020/12/31 06:46:47;;;;;;;18.80;7.90;;;;;;;10.62;75.55;100209.16;1779761;80;21147;-69
2020/12/31 06:49:15;;;;;;;22.45;8.88;;;;;;;10.64;75.81;100210.89;1780672;80;21575;-68
2020/12/31 06:51:43;;;;;;;22.80;9.80;;;;;;;10.71;75.74;100202.45;1781896;80;21539;-69
2020/12/31 06:54:11;;;;;;;28.35;12.15;;;;;;;10.64;76.27;100201.69;1780646;80;21490;-69
2020/12/31 06:56:44;;;;;;;26.30;11.35;;;;;;;10.70;76.33;100198.08;1780739;80;21171;-68
2020/12/31 06:59:35;;;;;;;22.67;9.08;;;;;;;10.77;76.27;100199.72;1726548;82;21153;-69
2020/12/31 07:02:14;;;;;;;26.62;10.63;;;;;;;10.80;76.34;100197.50;1771290;80;21701;-67
2020/12/31 07:04:41;;;;;;;19.17;8.75;;;;;;;10.85;76.28;100206.17;1750200;80;21186;-68
2020/12/31 07:07:25;;;;;;;18.12;9.13;;;;;;;10.89;76.33;100206.55;1761817;80;21610;-69
2020/12/31 07:10:00;;;;;;;27.87;13.00;;;;;;;10.98;76.24;100205.55;1780073;80;21650;-70
2020/12/31 07:12:39;;;;;;;27.00;14.70;;;;;;;11.04;76.23;100214.63;1756448;80;21681;-69
2020/12/31 07:15:08;;;;;;;27.13;14.85;;;;;;;11.05;76.22;100211.10;1751161;80;21301;-66
2020/12/31 07:17:45;;;;;;;23.30;11.65;;;;;;;11.05;76.29;100208.47;1750111;81;21366;-67
2020/12/31 07:20:15;;;;;;;29.65;12.63;;;;;;;11.06;76.43;100211.98;1767243;80;21730;-70
2020/12/31 07:22:47;;;;;;;26.07;13.20;;;;;;;11.16;76.31;100210.94;1776692;80;21550;-67
2020/12/31 07:25:18;;;;;;;30.92;13.72;;;;;;;11.23;76.35;100214.33;1762344;80;21160;-67
2020/12/31 07:27:50;;;;;;;39.10;20.97;;;;;;;11.29;76.56;100220.34;1767586;80;21586;-68
2020/12/31 07:30:19;;;;;;;49.83;22.87;;;;;;;11.39;76.55;100218.87;1755228;80;21145;-71
2020/12/31 07:32:56;;;;;;;33.13;17.00;;;;;;;11.44;76.68;100224.50;1780670;80;21190;-68
2020/12/31 07:35:36;;;;;;;18.17;10.32;;;;;;;11.57;76.59;100229.08;1763120;80;21302;-69
2020/12/31 07:38:11;;;;;;;25.10;10.73;;;;;;;11.63;76.36;100224.13;1754487;80;21154;-71
2020/12/31 07:40:47;;;;;;;36.48;19.60;;;;;;;11.69;76.27;100221.84;1758178;80;21550;-70
2020/12/31 07:43:18;;;;;;;32.28;16.95;;;;;;;11.80;76.16;100213.25;1753660;80;21152;-70
2020/12/31 07:45:57;;;;;;;27.82;12.70;;;;;;;11.84;76.17;100208.34;1741296;81;21148;-70
2020/12/31 07:48:26;;;;;;;26.70;12.68;;;;;;;11.78;76.47;100208.45;1718863;82;21594;-69
2020/12/31 07:50:59;;;;;;;30.48;12.37;;;;;;;11.86;76.42;100207.00;1717648;82;21197;-70
2020/12/31 07:53:29;;;;;;;31.75;16.20;;;;;;;11.94;76.33;100210.80;1744389;81;21738;-69
2020/12/31 07:55:57;;;;;;;25.92;14.47;;;;;;;12.02;76.32;100208.91;1735306;82;21135;-69
2020/12/31 07:58:28;;;;;;;37.05;19.10;;;;;;;12.10;76.31;100206.98;1727572;82;21582;-69
2020/12/31 08:01:06;;;;;;;39.25;21.15;;;;;;;12.25;76.05;100202.25;1740141;82;21127;-69
2020/12/31 08:03:35;;;;;;;46.28;21.85;;;;;;;12.27;76.11;100196.05;1744260;82;21539;-72
2020/12/31 08:06:04;;;;;;;37.58;16.20;;;;;;;12.43;75.77;100202.28;1743928;82;21604;-72
2020/12/31 08:08:34;;;;;;;36.77;19.60;;;;;;;12.52;75.74;100197.27;1737806;82;21151;-71
2020/12/31 08:11:09;;;;;;;35.80;16.32;;;;;;;12.59;75.44;100202.36;1744305;82;21171;-69
2020/12/31 08:13:37;;;;;;;22.45;12.23;;;;;;;12.65;75.27;100200.01;1744089;82;21163;-70
2020/12/31 08:16:07;;;;;;;22.67;9.75;;;;;;;12.62;75.35;100206.68;1743384;82;21182;-72
2020/12/31 08:18:35;;;;;;;21.93;9.25;;;;;;;12.65;75.10;100205.29;1733031;82;21531;-71
2020/12/31 08:21:05;;;;;;;23.98;9.58;;;;;;;12.67;75.03;100208.77;1643678;85;21166;-72
2020/12/31 08:23:38;;;;;;;22.25;9.83;;;;;;;12.73;75.12;100210.41;1675449;84;21170;-71
2020/12/31 08:26:08;;;;;;;23.38;11.08;;;;;;;12.63;75.36;100207.98;1670851;84;21552;-71
2020/12/31 08:28:37;;;;;;;21.80;10.55;;;;;;;12.68;75.15;100203.05;1683165;84;21164;-73
2020/12/31 08:31:16;;;;;;;29.45;12.13;;;;;;;12.79;75.08;100203.20;1706822;84;21183;-71
2020/12/31 08:33:44;;;;;;;35.20;19.37;;;;;;;12.85;75.17;100201.31;1689524;83;21199;-72
2020/12/31 08:36:23;;;;;;;26.60;13.75;;;;;;;12.91;75.15;100193.24;1702548;84;21127;-72
2020/12/31 08:38:50;;;;;;;23.52;12.07;;;;;;;12.92;75.11;100193.19;1706380;84;21630;-71
2020/12/31 08:41:19;;;;;;;27.85;12.68;;;;;;;12.97;75.14;100196.17;1680495;84;21587;-71
2020/12/31 08:43:46;;;;;;;24.18;9.95;;;;;;;13.00;75.12;100193.02;1727940;82;22086;-71
2020/12/31 08:46:20;;;;;;;27.52;11.03;;;;;;;13.02;74.86;100194.29;1745459;81;21143;-72
2020/12/31 08:48:57;;;;;;;27.52;10.88;;;;;;;13.09;74.65;100191.91;1747018;81;21489;-69
2020/12/31 08:51:29;;;;;;;21.52;10.08;;;;;;;13.10;74.52;100189.68;1715349;84;21296;-70
2020/12/31 08:53:59;;;;;;;23.12;10.32;;;;;;;13.12;74.70;100197.11;1711136;83;21160;-70
2020/12/31 08:56:31;;;;;;;25.52;9.50;;;;;;;13.18;74.61;100191.67;1728929;83;21207;-70
2020/12/31 08:59:15;;;;;;;25.40;9.03;;;;;;;13.24;74.39;100188.88;1729340;83;21161;-71
2020/12/31 09:01:44;;;;;;;22.70;8.68;;;;;;;13.24;74.42;100194.59;1708550;83;21630;-70
2020/12/31 09:04:19;;;;;;;18.35;8.33;;;;;;;13.29;74.21;100191.82;1728982;82;21269;-70
2020/12/31 09:06:49;;;;;;;25.55;9.55;;;;;;;13.21;74.15;100191.59;1746396;81;21362;-72
2020/12/31 09:09:27;;;;;;;31.82;8.90;;;;;;;13.20;74.46;100191.19;1728015;82;21575;-72
2020/12/31 09:12:06;;;;;;;20.30;9.85;;;;;;;13.22;74.63;100185.84;1715411;84;21183;-72
2020/12/31 09:14:37;;;;;;;33.20;13.68;;;;;;;13.26;74.67;100183.53;1719725;83;21575;-71
2020/12/31 09:17:24;;;;;;;31.93;15.43;;;;;;;13.27;74.56;100181.30;1746418;82;21155;-70
2020/12/31 09:19:55;;;;;;;29.50;10.40;;;;;;;13.32;74.48;100181.17;1727810;82;21169;-69
2020/12/31 09:22:25;;;;;;;22.55;10.65;;;;;;;13.34;74.37;100170.98;1739933;82;21483;-70
2020/12/31 09:24:53;;;;;;;28.92;10.05;;;;;;;13.36;74.51;100176.22;1723698;83;21217;-69
2020/12/31 09:27:23;;;;;;;27.48;10.45;;;;;;;13.41;74.40;100172.14;1716874;83;21119;-71
2020/12/31 09:29:59;;;;;;;22.00;10.38;;;;;;;13.44;74.26;100172.95;1728013;82;21049;-72
2020/12/31 09:32:27;;;;;;;18.27;9.23;;;;;;;13.52;74.11;100172.72;1716132;83;21154;-69
2020/12/31 09:34:57;;;;;;;24.50;9.50;;;;;;;13.58;74.06;100169.91;1727812;83;21112;-71
2020/12/31 09:37:25;;;;;;;26.87;10.25;;;;;;;13.64;74.02;100175.03;1692689;83;21130;-72
2020/12/31 09:39:53;;;;;;;26.45;8.73;;;;;;;13.69;73.93;100169.60;1714088;83;21651;-69
2020/12/31 09:42:21;;;;;;;20.97;9.30;;;;;;;13.71;73.72;100164.28;1699607;83;21103;-72
2020/12/31 09:44:48;;;;;;;26.73;11.05;;;;;;;13.78;73.59;100157.91;1707113;83;21081;-72
2020/12/31 09:47:16;;;;;;;21.02;8.93;;;;;;;13.79;73.46;100145.95;1728169;83;21092;-69
2020/12/31 09:49:44;;;;;;;28.42;8.73;;;;;;;13.82;73.50;100151.63;1686689;85;21506;-72
2020/12/31 09:52:11;;;;;;;26.02;8.80;;;;;;;13.83;73.44;100146.74;1709351;83;21596;-69
2020/12/31 09:54:39;;;;;;;21.90;8.60;;;;;;;13.85;73.50;100146.69;1659253;86;21200;-69
2020/12/31 09:57:06;;;;;;;26.80;9.15;;;;;;;13.88;73.23;100150.13;1687074;85;21692;-72
2020/12/31 09:59:34;;;;;;;22.75;8.98;;;;;;;13.85;72.92;100148.89;1709735;84;21586;-72
2020/12/31 10:02:03;;;;;;;23.30;7.78;;;;;;;13.86;72.92;100140.48;1706098;83;21193;-72
2020/12/31 10:04:30;;;;;;;24.70;8.85;;;;;;;13.85;72.78;100138.75;1699453;84;21530;-70
2020/12/31 10:06:59;;;;;;;23.95;9.03;;;;;;;13.86;72.65;100137.39;1699633;84;21067;-70
2020/12/31 10:09:27;;;;;;;16.90;8.70;;;;;;;13.89;72.57;100138.63;1707590;84;21618;-70
2020/12/31 10:11:55;;;;;;;19.20;8.50;;;;;;;13.92;72.74;100134.53;1691450;84;21145;-72
2020/12/31 10:14:23;;;;;;;22.32;9.50;;;;;;;13.90;72.55;100132.87;1662950;85;21521;-72
2020/12/31 10:16:53;;;;;;;28.30;9.80;;;;;;;13.87;72.45;100136.48;1705348;84;21510;-69
2020/12/31 10:19:20;;;;;;;20.27;8.55;;;;;;;13.89;72.51;100124.52;1685139;85;21118;-70
2020/12/31 10:21:48;;;;;;;16.90;8.03;;;;;;;13.83;72.28;100121.14;1716014;83;21123;-69
2020/12/31 10:24:16;;;;;;;19.82;8.23;;;;;;;13.89;72.36;100123.20;1707836;84;21127;-70
2020/12/31 10:26:45;;;;;;;21.07;8.75;;;;;;;13.88;72.33;100120.14;1700547;84;21139;-70
2020/12/31 10:29:14;;;;;;;18.67;9.13;;;;;;;13.88;72.26;100114.41;1693269;83;21694;-70
2020/12/31 10:31:42;;;;;;;17.23;8.73;;;;;;;13.83;72.57;100116.32;1688385;85;21681;-70
2020/12/31 10:34:10;;;;;;;20.12;8.43;;;;;;;13.84;72.64;100106.15;1690791;83;21700;-71
2020/12/31 10:36:38;;;;;;;27.50;8.63;;;;;;;13.92;72.49;100097.50;1686829;85;21144;-69
2020/12/31 10:39:06;;;;;;;22.82;8.98;;;;;;;14.00;72.31;100095.08;1714665;84;21650;-72
2020/12/31 10:41:33;;;;;;;17.32;8.50;;;;;;;14.05;72.24;100095.80;1715406;83;21499;-70
2020/12/31 10:44:02;;;;;;;26.05;10.82;;;;;;;14.07;72.44;100096.62;1712007;83;21342;-72
2020/12/31 10:46:30;;;;;;;21.07;9.98;;;;;;;14.20;72.34;100091.36;1708927;83;21096;-72
2020/12/31 10:48:59;;;;;;;22.67;10.17;;;;;;;14.21;72.11;100088.24;1687796;84;21577;-72
2020/12/31 10:51:27;;;;;;;17.98;9.98;;;;;;;14.29;71.87;100092.84;1706693;83;21135;-72
2020/12/31 10:53:55;;;;;;;25.05;10.23;;;;;;;14.20;72.24;100085.19;1720339;83;21542;-70
2020/12/31 10:56:22;;;;;;;21.85;8.88;;;;;;;14.12;72.15;100090.30;1744412;82;21140;-72
2020/12/31 10:58:50;;;;;;;19.15;9.60;;;;;;;14.11;72.33;100091.65;1704778;83;21665;-72
2020/12/31 11:01:18;;;;;;;20.10;8.48;;;;;;;14.19;72.35;100085.66;1706083;84;21131;-72
2020/12/31 11:03:46;;;;;;;17.32;7.87;;;;;;;14.25;71.89;100081.94;1780838;80;21514;-72
2020/12/31 11:06:26;;;;;;;20.32;9.10;;;;;;;14.35;71.76;100074.58;1769682;80;21106;-70
2020/12/31 11:08:55;;;;;;;22.90;9.75;;;;;;;14.41;71.60;100064.64;1779768;80;21508;-70
2020/12/31 11:11:30;;;;;;;16.15;8.35;;;;;;;14.42;71.59;100062.84;1781137;80;21130;-72
2020/12/31 11:13:58;;;;;;;18.67;8.18;;;;;;;14.41;71.85;100055.38;1757834;80;21067;-71
2020/12/31 11:16:26;;;;;;;22.65;7.87;;;;;;;14.50;71.69;100062.61;1778345;80;21528;-73
2020/12/31 11:18:54;;;;;;;24.40;12.58;;;;;;;14.57;71.66;100065.47;1781026;80;21542;-72
2020/12/31 11:21:22;;;;;;;23.57;12.65;;;;;;;14.67;71.31;100056.73;1780814;79;21579;-72
2020/12/31 11:23:50;;;;;;;19.52;8.78;;;;;;;14.65;71.31;100057.25;1781064;80;21126;-73
2020/12/31 11:26:21;;;;;;;19.55;8.75;;;;;;;14.65;71.17;100048.83;1772076;80;21094;-71